createdAt,value
2023-09-12T00:02:18.026Z,100655.75
2023-09-12T00:04:45.403Z,100653.06
2023-09-12T00:07:12.749Z,100656.28
2023-09-12T00:09:40.002Z,100659.00
2023-09-12T00:12:07.642Z,100663.38
2023-09-12T00:14:34.947Z,100660.00
2023-09-12T00:17:02.307Z,100663.91
2023-09-12T00:19:29.615Z,100662.38
2023-09-12T00:21:56.817Z,100667.41
2023-09-12T00:24:24.078Z,100661.19
2023-09-12T00:26:51.301Z,100657.66
2023-09-12T00:29:18.528Z,100652.56
2023-09-12T00:31:45.811Z,100651.41
2023-09-12T00:34:18.201Z,100650.38
2023-09-12T00:36:45.810Z,100657.66
2023-09-12T00:39:13.076Z,100656.81
2023-09-12T00:41:40.349Z,100657.00
2023-09-12T00:44:07.773Z,100657.00
2023-09-12T00:46:36.245Z,100654.28
2023-09-12T00:49:05.001Z,100651.28
2023-09-12T00:51:33.180Z,100654.28
2023-09-12T00:54:00.542Z,100653.44
2023-09-12T00:56:28.208Z,100646.88
2023-09-12T00:58:56.380Z,100646.03
2023-09-12T01:01:23.753Z,100648.91
2023-09-12T01:03:51.542Z,100646.72
2023-09-12T01:06:21.041Z,100644.88
2023-09-12T01:08:48.521Z,100646.88
2023-09-12T01:11:15.861Z,100647.88
2023-09-12T01:13:43.039Z,100647.03
2023-09-12T01:16:10.279Z,100644.88
2023-09-12T01:18:38.088Z,100642.47
2023-09-12T01:21:43.535Z,100647.72
2023-09-12T01:24:35.798Z,100645.88
2023-09-12T01:27:27.094Z,100644.34
2023-09-12T01:29:58.745Z,100645.50
2023-09-12T01:32:26.096Z,100652.56
2023-09-12T01:34:53.359Z,100644.78
2023-09-12T01:37:20.561Z,100644.66
2023-09-12T01:39:47.847Z,100639.78
2023-09-12T01:42:17.669Z,100642.47
2023-09-12T01:44:45.723Z,100637.25
2023-09-12T01:47:13.645Z,100640.09
2023-09-12T01:49:47.481Z,100633.00
2023-09-12T01:52:15.750Z,100642.78
2023-09-12T01:54:44.027Z,100633.84
2023-09-12T01:57:11.628Z,100641.78
2023-09-12T01:59:38.979Z,100638.41
2023-09-12T02:02:06.157Z,100631.16
2023-09-12T02:04:33.348Z,100634.00
2023-09-12T02:07:00.599Z,100633.00
2023-09-12T02:09:27.830Z,100623.38
2023-09-12T02:11:55.074Z,100617.50
2023-09-12T02:14:22.723Z,100621.50
2023-09-12T02:16:50.025Z,100626.59
2023-09-12T02:19:17.271Z,100618.13
2023-09-12T02:21:44.572Z,100623.19
2023-09-12T02:24:11.876Z,100623.19
2023-09-12T02:26:39.073Z,100620.81
2023-09-12T02:29:07.223Z,100623.38
2023-09-12T02:31:34.542Z,100624.22
2023-09-12T02:34:01.818Z,100626.22
2023-09-12T02:36:30.180Z,100620.66
2023-09-12T02:38:57.454Z,100621.81
2023-09-12T02:41:24.685Z,100620.97
2023-09-12T02:43:51.961Z,100620.97
2023-09-12T02:46:19.164Z,100618.81
2023-09-12T02:48:46.584Z,100618.28
2023-09-12T02:51:14.081Z,100617.97
2023-09-12T02:53:41.483Z,100612.88
2023-09-12T02:56:08.695Z,100612.72
2023-09-12T02:58:35.885Z,100608.34
2023-09-12T03:01:04.593Z,100612.03
2023-09-12T03:03:32.067Z,100609.88
2023-09-12T03:06:00.532Z,100612.03
2023-09-12T03:08:27.799Z,100614.22
2023-09-12T03:10:58.409Z,100610.69
2023-09-12T03:13:26.705Z,100614.56
2023-09-12T03:15:54.180Z,100614.75
2023-09-12T03:18:21.648Z,100614.03
2023-09-12T03:20:48.947Z,100612.03
2023-09-12T03:23:16.147Z,100612.03
2023-09-12T03:25:43.377Z,100615.59
2023-09-12T03:28:10.618Z,100617.59
2023-09-12T03:30:38.792Z,100613.38
2023-09-12T03:33:06.752Z,100617.75
2023-09-12T03:35:34.781Z,100617.75
2023-09-12T03:38:02.363Z,100618.78
2023-09-12T03:40:32.782Z,100620.06
2023-09-12T03:43:00.093Z,100624.31
2023-09-12T03:45:27.359Z,100622.63
2023-09-12T03:47:54.585Z,100626.00
2023-09-12T03:50:21.830Z,100629.56
2023-09-12T03:52:49.051Z,100621.47
2023-09-12T03:55:16.346Z,100620.59
2023-09-12T03:57:43.777Z,100621.47
2023-09-12T04:00:11.394Z,100624.84
2023-09-12T04:02:38.716Z,100625.16
2023-09-12T04:05:06.099Z,100617.75
2023-09-12T04:07:33.280Z,100614.03
2023-09-12T04:10:00.539Z,100606.44
2023-09-12T04:12:27.797Z,100610.34
2023-09-12T04:14:56.164Z,100614.84
2023-09-12T04:17:23.459Z,100616.06
2023-09-12T04:19:50.660Z,100612.50
2023-09-12T04:22:17.874Z,100610.13
2023-09-12T04:24:45.106Z,100607.41
2023-09-12T04:27:12.405Z,100602.19
2023-09-12T04:29:40.265Z,100610.13
2023-09-12T04:32:07.758Z,100618.38
2023-09-12T04:34:36.467Z,100622.94
2023-09-12T04:37:07.465Z,100626.88
2023-09-12T04:39:34.920Z,100632.59
2023-09-12T04:42:02.115Z,100634.97
2023-09-12T04:44:29.299Z,100637.28
2023-09-12T04:46:56.498Z,100630.03
2023-09-12T04:49:23.753Z,100633.94
2023-09-12T04:51:50.963Z,100631.72
2023-09-12T04:54:18.305Z,100636.25
2023-09-12T04:56:45.519Z,100635.09
2023-09-12T04:59:12.701Z,100627.53
2023-09-12T05:01:39.896Z,100627.84
2023-09-12T05:04:07.204Z,100629.81
2023-09-12T05:06:34.812Z,100630.72
2023-09-12T05:09:02.153Z,100624.56
2023-09-12T05:11:29.366Z,100634.34
2023-09-12T05:13:56.578Z,100632.91
2023-09-12T05:16:23.800Z,100639.84
2023-09-12T05:18:52.050Z,100638.66
2023-09-12T05:21:19.372Z,100639.13
2023-09-12T05:23:46.601Z,100637.56
2023-09-12T05:26:13.788Z,100643.59
2023-09-12T05:28:41.573Z,100644.06
2023-09-12T05:31:09.044Z,100648.88
2023-09-12T05:33:36.291Z,100648.03
2023-09-12T05:36:04.215Z,100647.44
2023-09-12T05:38:31.489Z,100654.38
2023-09-12T05:40:58.822Z,100653.91
2023-09-12T05:43:26.008Z,100656.91
2023-09-12T05:45:54.119Z,100654.13
2023-09-12T05:48:21.420Z,100659.66
2023-09-12T05:50:48.634Z,100664.56
2023-09-12T05:53:15.908Z,100670.25
2023-09-12T05:55:43.139Z,100666.13
2023-09-12T05:58:10.381Z,100656.16
2023-09-12T06:00:37.593Z,100655.91
2023-09-12T06:03:05.108Z,100658.09
2023-09-12T06:05:32.905Z,100667.63
2023-09-12T06:08:00.822Z,100662.13
2023-09-12T06:10:28.122Z,100653.91
2023-09-12T06:12:55.320Z,100663.53
2023-09-12T06:15:22.588Z,100667.63
2023-09-12T06:17:49.845Z,100670.94
2023-09-12T06:20:17.046Z,100675.53
2023-09-12T06:22:44.747Z,100670.19
2023-09-12T06:25:11.988Z,100675.09
2023-09-12T06:27:39.208Z,100679.81
2023-09-12T06:30:07.116Z,100683.19
2023-09-12T06:32:34.365Z,100685.06
2023-09-12T06:35:01.659Z,100689.19
2023-09-12T06:37:28.852Z,100693.09
2023-09-12T06:39:56.053Z,100680.56
2023-09-12T06:42:23.279Z,100688.34
2023-09-12T06:44:50.496Z,100694.22
2023-09-12T06:47:17.668Z,100704.63
2023-09-12T06:49:47.358Z,100696.03
2023-09-12T06:52:17.336Z,100694.34
2023-09-12T06:54:44.725Z,100699.88
2023-09-12T06:57:12.249Z,100693.22
2023-09-12T06:59:40.113Z,100694.53
2023-09-12T07:02:08.522Z,100694.75
2023-09-12T07:04:35.770Z,100699.97
2023-09-12T07:07:03.649Z,100703.19
2023-09-12T07:09:31.504Z,100706.91
2023-09-12T07:11:59.073Z,100708.88
2023-09-12T07:14:34.693Z,100695.63
2023-09-12T07:17:02.068Z,100692.88
2023-09-12T07:19:29.532Z,100695.09
2023-09-12T07:21:58.049Z,100703.28
2023-09-12T07:24:28.906Z,100706.16
2023-09-12T07:26:56.407Z,100705.81
2023-09-12T07:29:23.867Z,100693.31
2023-09-12T07:31:57.851Z,100700.88
2023-09-12T07:34:26.541Z,100700.06
2023-09-12T07:36:54.949Z,100697.47
2023-09-12T07:39:22.262Z,100689.97
2023-09-12T07:41:49.512Z,100692.59
2023-09-12T07:44:17.639Z,100692.00
2023-09-12T07:46:45.550Z,100702.66
2023-09-12T07:49:12.791Z,100709.47
2023-09-12T07:51:40.025Z,100703.34
2023-09-12T07:54:07.316Z,100699.06
2023-09-12T07:56:34.565Z,100693.13
2023-09-12T07:59:01.744Z,100695.06
2023-09-12T08:01:29.054Z,100705.50
2023-09-12T08:03:56.446Z,100706.94
2023-09-12T08:06:25.274Z,100705.19
2023-09-12T08:08:52.508Z,100696.47
2023-09-12T08:11:19.721Z,100695.78
2023-09-12T08:13:50.765Z,100692.53
2023-09-12T08:16:18.213Z,100701.56
2023-09-12T08:18:45.466Z,100703.34
2023-09-12T08:21:12.916Z,100690.91
2023-09-12T08:23:40.239Z,100700.13
2023-09-12T08:26:07.451Z,100708.66
2023-09-12T08:28:34.643Z,100713.69
2023-09-12T08:31:01.799Z,100709.44
2023-09-12T08:33:29.071Z,100715.31
2023-09-12T08:35:56.348Z,100715.56
2023-09-12T08:38:25.179Z,100719.69
2023-09-12T08:40:52.479Z,100705.03
2023-09-12T08:43:20.135Z,100716.31
2023-09-12T08:45:48.520Z,100713.78
2023-09-12T08:48:17.187Z,100724.03
2023-09-12T08:50:45.236Z,100727.66
2023-09-12T08:53:12.465Z,100738.44
2023-09-12T08:55:39.861Z,100745.84
2023-09-12T08:58:08.180Z,100746.88
2023-09-12T09:00:36.914Z,100746.22
2023-09-12T09:03:04.565Z,100759.38
2023-09-12T09:05:32.576Z,100760.59
2023-09-12T09:08:00.730Z,100768.47
2023-09-12T09:10:47.070Z,100770.81
2023-09-12T09:13:17.867Z,100776.22
2023-09-12T09:15:45.180Z,100786.88
2023-09-12T09:18:13.916Z,100782.59
2023-09-12T09:20:42.259Z,100774.00
2023-09-12T09:23:11.001Z,100775.59
2023-09-12T09:25:42.477Z,100766.94
2023-09-12T09:28:20.550Z,100771.75
2023-09-12T09:30:50.118Z,100769.34
2023-09-12T09:33:17.487Z,100780.47
2023-09-12T09:35:48.255Z,100775.06
2023-09-12T09:38:17.665Z,100765.88
2023-09-12T09:40:45.432Z,100764.94
2023-09-12T09:43:12.796Z,100761.63
2023-09-12T09:45:47.302Z,100760.88
2023-09-12T09:48:22.223Z,100760.91
2023-09-12T09:50:50.122Z,100750.41
2023-09-12T09:53:17.565Z,100742.72
2023-09-12T09:55:45.048Z,100739.09
2023-09-12T09:58:19.956Z,100730.78
2023-09-12T10:00:49.523Z,100725.69
2023-09-12T10:03:20.865Z,100732.97
2023-09-12T10:05:49.587Z,100723.31
2023-09-12T10:08:18.351Z,100718.81
2023-09-12T10:10:45.588Z,100715.38
2023-09-12T10:13:13.173Z,100712.47
2023-09-12T10:15:40.777Z,100708.84
2023-09-12T10:20:49.400Z,100708.75
2023-09-12T10:23:28.958Z,100711.31
2023-09-12T10:25:56.832Z,100713.22
2023-09-12T10:28:24.310Z,100719.63
2023-09-12T10:30:51.595Z,100712.81
2023-09-12T10:33:19.368Z,100720.09
2023-09-12T10:35:47.435Z,100728.38
2023-09-12T10:38:15.461Z,100729.41
2023-09-12T10:40:44.579Z,100714.81
2023-09-12T10:43:12.731Z,100720.47
2023-09-12T10:45:41.994Z,100715.22
2023-09-12T10:48:12.179Z,100722.72
2023-09-12T10:50:40.818Z,100717.66
2023-09-12T10:53:16.538Z,100724.38
2023-09-12T10:55:43.988Z,100719.66
2023-09-12T10:58:12.258Z,100721.41
2023-09-12T11:00:40.838Z,100719.75
2023-09-12T11:03:38.606Z,100713.13
2023-09-12T11:06:06.888Z,100712.34
2023-09-12T11:08:38.447Z,100713.03
2023-09-12T11:11:22.206Z,100719.13
2023-09-12T11:14:05.116Z,100709.78
2023-09-12T11:16:32.780Z,100704.94
2023-09-12T11:19:19.713Z,100707.97
2023-09-12T11:21:54.236Z,100712.69
2023-09-12T11:24:22.376Z,100712.50
2023-09-12T11:27:00.769Z,100709.13
2023-09-12T11:29:38.683Z,100712.03
2023-09-12T11:32:06.917Z,100708.09
2023-09-12T11:34:40.017Z,100702.88
2023-09-12T11:37:07.274Z,100707.59
2023-09-12T11:39:36.793Z,100709.00
2023-09-12T11:42:05.200Z,100703.78
2023-09-12T11:44:33.245Z,100708.34
2023-09-12T11:47:04.317Z,100704.78
2023-09-12T11:49:41.704Z,100710.34
2023-09-12T11:52:14.601Z,100707.13
2023-09-12T11:54:42.750Z,100707.66
2023-09-12T11:57:15.728Z,100700.88
2023-09-12T11:59:49.992Z,100699.72
2023-09-12T12:02:17.606Z,100709.34
2023-09-12T12:04:45.061Z,100710.84
2023-09-12T12:07:12.928Z,100711.53
2023-09-12T12:09:40.578Z,100710.06
2023-09-12T12:12:11.989Z,100708.03
2023-09-12T12:14:41.058Z,100696.50
2023-09-12T12:17:12.403Z,100703.25
2023-09-12T12:19:40.349Z,100707.31
2023-09-12T12:22:09.094Z,100710.06
2023-09-12T12:24:41.863Z,100704.66
2023-09-12T12:27:09.539Z,100696.22
2023-09-12T12:29:37.610Z,100685.59
2023-09-12T12:32:06.464Z,100691.47
2023-09-12T12:35:28.008Z,100688.09
2023-09-12T12:37:21.415Z,100682.56
2023-09-12T12:39:49.003Z,100682.13
2023-09-12T12:42:16.276Z,100677.31
2023-09-12T12:44:43.488Z,100677.31
2023-09-12T12:47:12.979Z,100678.34
2023-09-12T12:49:41.117Z,100673.94
2023-09-12T12:52:12.188Z,100662.25
2023-09-12T12:54:40.213Z,100655.16
2023-09-12T12:57:07.461Z,100654.00
2023-09-12T12:59:37.412Z,100653.34
2023-09-12T13:02:04.774Z,100649.81
2023-09-12T13:04:39.227Z,100648.59
2023-09-12T13:07:06.980Z,100632.38
2023-09-12T13:09:34.915Z,100627.13
2023-09-12T13:12:02.271Z,100636.44
2023-09-12T13:14:32.273Z,100635.94
2023-09-12T13:17:00.310Z,100627.97
2023-09-12T13:19:28.052Z,100623.75
2023-09-12T13:21:55.352Z,100636.59
2023-09-12T13:24:22.595Z,100632.03
2023-09-12T13:26:50.101Z,100628.66
2023-09-12T13:29:17.448Z,100630.69
2023-09-12T13:31:44.918Z,100628.81
2023-09-12T13:34:12.332Z,100632.38
2023-09-12T13:36:39.685Z,100639.97
2023-09-12T13:39:09.458Z,100642.88
2023-09-12T13:41:37.404Z,100634.41
2023-09-12T13:44:05.003Z,100640.16
2023-09-12T13:46:32.355Z,100635.94
2023-09-12T13:49:01.761Z,100638.28
2023-09-12T13:51:29.381Z,100634.25
2023-09-12T13:53:56.602Z,100632.53
2023-09-12T13:56:24.685Z,100629.81
2023-09-12T13:58:52.068Z,100636.13
2023-09-12T14:01:32.071Z,100635.44
2023-09-12T14:04:03.456Z,100629.66
2023-09-12T14:06:31.626Z,100636.78
2023-09-12T14:08:59.481Z,100635.94
2023-09-12T14:11:33.049Z,100638.31
2023-09-12T14:16:34.681Z,100648.97
2023-09-12T14:19:02.262Z,100649.13
2023-09-12T14:21:31.192Z,100671.44
2023-09-12T14:23:59.244Z,100676.63
2023-09-12T14:26:26.770Z,100681.69
2023-09-12T14:28:55.068Z,100689.78
2023-09-12T14:31:24.137Z,100698.56
2023-09-12T14:33:53.614Z,100699.56
2023-09-12T14:36:20.994Z,100697.53
2023-09-12T14:38:48.229Z,100696.75
2023-09-12T14:41:15.662Z,100698.31
2023-09-12T14:43:43.069Z,100692.03
2023-09-12T14:46:11.197Z,100692.03
2023-09-12T14:48:40.863Z,100691.50
2023-09-12T14:51:09.966Z,100690.53
2023-09-12T14:53:37.428Z,100684.41
2023-09-12T14:56:04.669Z,100684.22
2023-09-12T14:58:31.861Z,100680.69
2023-09-12T15:00:59.959Z,100679.84
2023-09-12T15:03:27.723Z,100670.19
2023-09-12T15:05:54.960Z,100663.94
2023-09-12T15:08:22.144Z,100672.75
2023-09-12T15:10:49.511Z,100670.84
2023-09-12T15:13:16.839Z,100663.06
2023-09-12T15:15:44.145Z,100671.50
2023-09-12T15:18:11.470Z,100673.38
2023-09-12T15:20:38.690Z,100683.03
2023-09-12T15:23:06.551Z,100671.88
2023-09-12T15:25:33.746Z,100668.16
2023-09-12T15:28:00.972Z,100660.03
2023-09-12T15:30:28.331Z,100661.72
2023-09-12T15:32:55.548Z,100650.91
2023-09-12T15:35:22.906Z,100649.53
2023-09-12T15:37:52.225Z,100655.84
2023-09-12T15:40:19.389Z,100648.88
2023-09-12T15:42:47.787Z,100647.19
2023-09-12T15:45:17.052Z,100631.47
2023-09-12T15:47:46.659Z,100633.31
2023-09-12T15:50:15.171Z,100630.63
2023-09-12T15:52:43.831Z,100628.59
2023-09-12T15:55:12.225Z,100630.47
2023-09-12T15:57:39.956Z,100624.22
2023-09-12T16:00:11.041Z,100625.53
2023-09-12T16:02:42.182Z,100629.94
2023-09-12T16:05:10.055Z,100617.09
2023-09-12T16:07:37.775Z,100618.94
2023-09-12T16:10:05.326Z,100630.94
2023-09-12T16:12:32.619Z,100626.88
2023-09-12T16:14:59.923Z,100622.00
2023-09-12T16:17:27.150Z,100628.94
2023-09-12T16:19:55.416Z,100626.03
2023-09-12T16:22:22.647Z,100623.84
2023-09-12T16:24:49.887Z,100626.22
2023-09-12T16:27:18.332Z,100632.63
2023-09-12T16:29:45.574Z,100627.38
2023-09-12T16:32:12.774Z,100632.25
2023-09-12T16:34:40.186Z,100634.63
2023-09-12T16:37:07.503Z,100638.00
2023-09-12T16:39:36.818Z,100634.63
2023-09-12T16:42:04.120Z,100636.00
2023-09-12T16:44:31.320Z,100633.44
2023-09-12T16:46:58.545Z,100643.06
2023-09-12T16:49:26.058Z,100646.09
2023-09-12T16:51:53.318Z,100641.03
2023-09-12T16:54:20.559Z,100650.63
2023-09-12T16:56:47.774Z,100646.09
2023-09-12T16:59:15.003Z,100644.25
2023-09-12T17:01:42.232Z,100632.41
2023-09-12T17:04:11.082Z,100635.28
2023-09-12T17:06:38.476Z,100638.50
2023-09-12T17:09:05.998Z,100650.50
2023-09-12T17:11:33.198Z,100646.75
2023-09-12T17:14:00.456Z,100646.09
2023-09-12T17:16:27.706Z,100649.66
2023-09-12T17:18:55.093Z,100648.09
2023-09-12T17:21:22.370Z,100653.84
2023-09-12T17:23:49.555Z,100658.09
2023-09-12T17:26:17.885Z,100665.34
2023-09-12T17:28:45.104Z,100657.38
2023-09-12T17:31:13.275Z,100657.56
2023-09-12T17:33:40.506Z,100655.72
2023-09-12T17:36:07.874Z,100670.91
2023-09-12T17:38:35.106Z,100671.19
2023-09-12T17:41:02.592Z,100673.47
2023-09-12T17:43:31.018Z,100672.06
2023-09-12T17:46:10.171Z,100672.06
2023-09-12T17:48:41.270Z,100671.53
2023-09-12T17:51:08.787Z,100667.81
2023-09-12T17:53:35.955Z,100664.25
2023-09-12T17:56:03.146Z,100671.84
2023-09-12T17:58:30.328Z,100668.16
2023-09-12T18:01:02.488Z,100661.22
2023-09-12T18:03:32.452Z,100669.63
2023-09-12T18:06:00.328Z,100664.06
2023-09-12T18:08:27.558Z,100670.09
2023-09-12T18:10:54.750Z,100665.91
2023-09-12T18:13:21.996Z,100680.56
2023-09-12T18:15:49.285Z,100679.72
2023-09-12T18:18:16.581Z,100671.78
2023-09-12T18:20:43.782Z,100672.94
2023-09-12T18:23:10.995Z,100674.78
2023-09-12T18:25:38.181Z,100678.66
2023-09-12T18:28:06.371Z,100680.69
2023-09-12T18:30:33.685Z,100673.75
2023-09-12T18:33:00.972Z,100684.66
2023-09-12T18:35:28.226Z,100686.56
2023-09-12T18:37:55.663Z,100683.19
2023-09-12T18:40:23.396Z,100687.56
2023-09-12T18:42:50.620Z,100685.50
2023-09-12T18:45:17.852Z,100687.28
2023-09-12T18:47:45.181Z,100692.28
2023-09-12T18:50:12.424Z,100696.69
2023-09-12T18:52:53.775Z,100700.06
2023-09-12T18:55:23.916Z,100701.84
2023-09-12T18:57:51.253Z,100705.22
2023-09-12T19:00:18.760Z,100698.69
2023-09-12T19:02:46.870Z,100701.59
2023-09-12T19:05:14.379Z,100703.81
2023-09-12T19:07:41.700Z,100700.63
2023-09-12T19:10:11.485Z,100697.13
2023-09-12T19:12:38.843Z,100696.56
2023-09-12T19:15:06.612Z,100690.91
2023-09-12T19:17:34.003Z,100692.72
2023-09-12T19:20:01.298Z,100702.09
2023-09-12T19:22:28.537Z,100701.59
2023-09-12T19:24:55.742Z,100695.41
2023-09-12T19:27:23.330Z,100697.56
2023-09-12T19:29:52.758Z,100695.53
2023-09-12T19:32:19.938Z,100694.56
2023-09-12T19:34:47.115Z,100699.47
2023-09-12T19:37:14.337Z,100690.47
2023-09-12T19:39:41.597Z,100685.94
2023-09-12T19:42:10.117Z,100693.09
2023-09-12T19:44:37.332Z,100681.38
2023-09-12T19:47:05.293Z,100679.69
2023-09-12T19:49:32.806Z,100678.22
2023-09-12T19:52:00.075Z,100681.41
2023-09-12T19:54:27.277Z,100670.88
2023-09-12T19:56:54.452Z,100676.22
2023-09-12T19:59:21.705Z,100675.66
2023-09-12T20:01:49.943Z,100674.69
2023-09-12T20:04:17.580Z,100677.91
2023-09-12T20:06:44.941Z,100678.22
2023-09-12T20:09:12.610Z,100682.09
2023-09-12T20:11:41.146Z,100682.03
2023-09-12T20:14:11.501Z,100684.66
2023-09-12T20:16:39.530Z,100689.06
2023-09-12T20:19:09.023Z,100694.09
2023-09-12T20:21:36.661Z,100695.75
2023-09-12T20:24:08.150Z,100700.09
2023-09-12T20:26:35.808Z,100703.41
2023-09-12T20:29:03.084Z,100701.13
2023-09-12T20:31:30.357Z,100694.69
2023-09-12T20:33:58.025Z,100692.31
2023-09-12T20:36:30.449Z,100686.25
2023-09-12T20:39:26.570Z,100691.63
2023-09-12T20:41:54.751Z,100692.00
2023-09-12T20:44:22.143Z,100694.69
2023-09-12T20:46:49.523Z,100691.88
2023-09-12T20:49:16.868Z,100698.09
2023-09-12T20:51:49.254Z,100688.59
2023-09-12T20:54:17.562Z,100682.00
2023-09-12T20:56:45.574Z,100682.13
2023-09-12T20:59:12.876Z,100678.91
2023-09-12T21:01:40.200Z,100678.75
2023-09-12T21:04:07.580Z,100674.03
2023-09-12T21:06:35.206Z,100670.06
2023-09-12T21:09:02.511Z,100673.13
2023-09-12T21:11:29.738Z,100671.06
2023-09-12T21:13:56.926Z,100670.59
2023-09-12T21:16:24.290Z,100674.59
2023-09-12T21:18:51.646Z,100678.16
2023-09-12T21:21:18.843Z,100679.59
2023-09-12T21:23:46.473Z,100685.84
2023-09-12T21:26:13.925Z,100685.41
2023-09-12T21:28:41.134Z,100680.31
2023-09-12T21:31:08.395Z,100678.94
2023-09-12T21:33:35.814Z,100681.53
2023-09-12T21:36:03.956Z,100675.34
2023-09-12T21:38:31.167Z,100673.44
2023-09-12T21:40:59.426Z,100675.69
2023-09-12T21:43:27.075Z,100667.75
2023-09-12T21:45:54.390Z,100673.72
2023-09-12T21:48:21.676Z,100664.91
2023-09-12T21:50:48.897Z,100659.53
2023-09-12T21:53:16.075Z,100652.75
2023-09-12T21:55:43.281Z,100653.78
2023-09-12T21:58:10.472Z,100664.69
2023-09-12T22:00:37.833Z,100657.09
2023-09-12T22:03:05.497Z,100645.81
2023-09-12T22:05:33.583Z,100650.84
2023-09-12T22:08:00.761Z,100645.34
2023-09-12T22:10:28.001Z,100642.91
2023-09-12T22:12:56.249Z,100649.13
2023-09-12T22:15:23.432Z,100648.66
2023-09-12T22:17:50.663Z,100651.59
2023-09-12T22:20:17.953Z,100645.91
2023-09-12T22:22:46.428Z,100649.88
2023-09-12T22:25:14.204Z,100646.16
2023-09-12T22:27:42.567Z,100636.53
2023-09-12T22:30:10.332Z,100645.44
2023-09-12T22:32:40.473Z,100634.22
2023-09-12T22:35:07.986Z,100625.97
2023-09-12T22:37:35.352Z,100629.50
2023-09-12T22:40:02.666Z,100638.47
2023-09-12T22:42:29.932Z,100628.34
2023-09-12T22:44:57.194Z,100625.50
2023-09-12T22:47:24.995Z,100620.78
2023-09-12T22:49:52.692Z,100626.03
2023-09-12T22:52:20.032Z,100615.38
2023-09-12T22:54:47.393Z,100614.41
2023-09-12T22:57:14.636Z,100607.16
2023-09-12T22:59:41.824Z,100596.91
2023-09-12T23:02:09.823Z,100594.19
2023-09-12T23:04:37.161Z,100588.94
2023-09-12T23:07:04.593Z,100584.25
2023-09-12T23:09:31.960Z,100583.41
2023-09-12T23:11:59.305Z,100571.59
2023-09-12T23:14:29.564Z,100576.16
2023-09-12T23:16:56.780Z,100577.00
2023-09-12T23:23:12.531Z,100551.72
2023-09-12T23:25:40.009Z,100541.78
2023-09-12T23:28:07.780Z,100541.78
2023-09-12T23:30:35.165Z,100541.78
2023-09-12T23:33:02.409Z,100559.81
2023-09-12T23:35:29.645Z,100563.19
2023-09-12T23:37:56.872Z,100556.81
2023-09-12T23:40:24.082Z,100555.94
2023-09-12T23:42:51.408Z,100558.00
2023-09-12T23:45:18.736Z,100555.31
2023-09-12T23:47:45.956Z,100552.28
2023-09-12T23:50:13.456Z,100548.59
2023-09-12T23:52:40.808Z,100528.00
2023-09-12T23:55:08.294Z,100528.69
2023-09-12T23:57:35.573Z,100521.75
